createdAt,value
2022-09-03T00:00:15.060Z,82.13
2022-09-03T00:03:16.477Z,82.44
2022-09-03T00:06:17.700Z,82.80
2022-09-03T00:09:36.101Z,83.49
2022-09-03T00:12:34.701Z,83.35
2022-09-03T00:15:24.716Z,82.40
2022-09-03T00:18:22.224Z,82.22
2022-09-03T00:21:22.542Z,81.56
2022-09-03T00:24:15.623Z,80.89
2022-09-03T00:27:11.673Z,81.11
2022-09-03T00:30:21.467Z,81.11
2022-09-03T00:33:27.375Z,80.42
2022-09-03T00:36:45.218Z,80.22
2022-09-03T00:39:33.766Z,79.17
2022-09-03T00:43:16.323Z,79.59
2022-09-03T00:46:51.283Z,78.86
2022-09-03T00:49:48.545Z,78.50
2022-09-03T00:53:00.944Z,78.99
2022-09-03T00:56:25.138Z,79.99
2022-09-03T00:59:35.908Z,79.93
2022-09-03T01:02:58.565Z,79.52
2022-09-03T01:06:13.449Z,79.65
2022-09-03T01:09:09.670Z,79.36
2022-09-03T01:12:03.480Z,80.10
2022-09-03T01:15:06.856Z,80.54
2022-09-03T01:18:21.888Z,81.01
2022-09-03T01:21:28.229Z,82.00
2022-09-03T01:24:35.965Z,82.24
2022-09-03T01:27:50.793Z,82.78
2022-09-03T01:30:49.335Z,83.04
2022-09-03T01:34:25.843Z,83.27
2022-09-03T01:37:39.110Z,83.30
2022-09-03T01:41:36.790Z,83.54
2022-09-03T01:45:14.293Z,83.88
2022-09-03T01:48:12.117Z,83.84
2022-09-03T01:51:19.809Z,84.19
2022-09-03T01:54:38.654Z,84.33
2022-09-03T01:58:06.763Z,85.06
2022-09-03T02:01:07.710Z,85.54
2022-09-03T02:04:00.124Z,85.63
2022-09-03T02:06:49.058Z,85.89
2022-09-03T02:09:36.730Z,86.29
2022-09-03T02:12:25.466Z,86.46
2022-09-03T02:15:19.526Z,86.39
2022-09-03T02:18:17.293Z,86.43
2022-09-03T02:21:05.616Z,86.66
2022-09-03T02:23:54.109Z,87.50
2022-09-03T02:26:41.917Z,87.66
2022-09-03T02:29:31.038Z,87.12
2022-09-03T02:32:19.193Z,87.41
2022-09-03T02:35:08.140Z,87.77
2022-09-03T02:37:56.360Z,87.98
2022-09-03T02:40:45.860Z,88.12
2022-09-03T02:43:45.783Z,88.27
2022-09-03T02:47:03.055Z,88.81
2022-09-03T02:49:52.745Z,88.80
2022-09-03T02:52:40.967Z,89.49
2022-09-03T02:55:30.665Z,89.59
2022-09-03T02:58:18.665Z,90.08
2022-09-03T03:01:06.745Z,89.63
2022-09-03T03:03:54.640Z,89.41
2022-09-03T03:06:42.719Z,89.40
2022-09-03T03:09:35.783Z,89.34
2022-09-03T03:12:23.613Z,89.07
2022-09-03T03:15:11.649Z,88.92
2022-09-03T03:17:59.659Z,88.93
2022-09-03T03:20:50.355Z,88.94
2022-09-03T03:23:39.752Z,88.68
2022-09-03T03:26:27.269Z,88.22
2022-09-03T03:29:20.871Z,87.76
2022-09-03T03:32:09.101Z,87.23
2022-09-03T03:34:57.097Z,86.94
2022-09-03T03:37:45.448Z,85.74
2022-09-03T03:40:35.016Z,85.59
2022-09-03T03:43:23.055Z,85.15
2022-09-03T03:46:12.178Z,84.47
2022-09-03T03:49:01.359Z,84.67
2022-09-03T03:51:49.361Z,84.41
2022-09-03T03:54:37.683Z,84.49
2022-09-03T03:57:26.046Z,84.40
2022-09-03T04:00:15.581Z,84.17
2022-09-03T04:03:04.775Z,83.98
2022-09-03T04:05:59.346Z,83.88
2022-09-03T04:08:49.764Z,83.67
2022-09-03T04:11:37.454Z,83.08
2022-09-03T04:14:27.356Z,83.45
2022-09-03T04:17:15.799Z,83.61
2022-09-03T04:20:04.813Z,83.74
2022-09-03T04:22:52.694Z,83.73
2022-09-03T04:25:42.097Z,84.26
2022-09-03T04:28:30.065Z,84.22
2022-09-03T04:31:21.347Z,84.40
2022-09-03T04:34:09.640Z,84.24
2022-09-03T04:37:00.718Z,84.48
2022-09-03T04:39:48.805Z,84.49
2022-09-03T04:42:36.741Z,84.34
2022-09-03T04:45:24.850Z,84.21
2022-09-03T04:48:13.868Z,83.98
2022-09-03T04:51:07.535Z,84.29
2022-09-03T04:54:00.359Z,83.92
2022-09-03T04:56:48.888Z,83.53
2022-09-03T04:59:37.243Z,83.61
2022-09-03T05:02:25.617Z,83.29
2022-09-03T05:05:13.971Z,82.77
2022-09-03T05:08:02.267Z,82.44
2022-09-03T05:10:50.115Z,82.14
2022-09-03T05:13:43.380Z,81.68
2022-09-03T05:16:31.636Z,81.39
2022-09-03T05:19:19.864Z,80.79
2022-09-03T05:22:08.315Z,80.75
2022-09-03T05:24:58.261Z,80.61
2022-09-03T05:27:47.206Z,80.40
2022-09-03T05:30:36.667Z,80.14
2022-09-03T05:33:25.138Z,80.08
2022-09-03T05:36:17.182Z,79.93
2022-09-03T05:39:09.563Z,79.77
2022-09-03T05:41:57.491Z,79.51
2022-09-03T05:44:45.705Z,78.74
2022-09-03T05:47:33.620Z,78.56
2022-09-03T05:50:21.587Z,78.12
2022-09-03T05:53:09.753Z,77.85
2022-09-03T05:56:00.353Z,77.39
2022-09-03T05:58:52.722Z,76.41
2022-09-03T06:01:50.702Z,75.64
2022-09-03T06:04:40.295Z,73.75
2022-09-03T06:07:28.388Z,72.73
2022-09-03T06:10:20.225Z,71.25
2022-09-03T06:13:10.876Z,67.93
2022-09-03T06:16:08.703Z,67.41
2022-09-03T06:18:57.003Z,65.52
2022-09-03T06:21:48.521Z,64.22
2022-09-03T06:24:37.000Z,64.50
2022-09-03T06:27:26.213Z,64.30
2022-09-03T06:30:17.214Z,63.67
2022-09-03T06:33:04.877Z,63.29
2022-09-03T06:35:58.190Z,63.89
2022-09-03T06:38:47.630Z,64.79
2022-09-03T06:41:36.155Z,65.20
2022-09-03T06:44:24.327Z,65.70
2022-09-03T06:47:12.244Z,65.73
2022-09-03T06:50:02.329Z,66.52
2022-09-03T06:52:57.059Z,67.00
2022-09-03T06:55:53.867Z,67.54
2022-09-03T06:58:45.592Z,67.38
2022-09-03T07:01:34.987Z,67.31
2022-09-03T07:04:25.175Z,67.02
2022-09-03T07:07:14.203Z,67.75
2022-09-03T07:10:02.567Z,67.32
2022-09-03T07:12:50.524Z,67.05
2022-09-03T07:15:38.483Z,67.37
2022-09-03T07:18:26.254Z,66.74
2022-09-03T07:21:27.221Z,67.39
2022-09-03T07:24:15.476Z,67.10
2022-09-03T07:27:09.836Z,66.75
2022-09-03T07:30:00.686Z,67.30
2022-09-03T07:32:51.154Z,67.45
2022-09-03T07:35:39.150Z,67.36
2022-09-03T07:38:27.034Z,67.94
2022-09-03T07:41:26.807Z,68.10
2022-09-03T07:44:19.981Z,68.68
2022-09-03T07:47:10.252Z,69.56
2022-09-03T07:49:58.209Z,69.97
2022-09-03T07:52:46.128Z,69.63
2022-09-03T07:55:34.134Z,67.99
2022-09-03T07:58:24.267Z,66.60
2022-09-03T08:01:18.197Z,66.28
2022-09-03T08:04:09.710Z,64.35
2022-09-03T08:06:59.509Z,63.28
2022-09-03T08:09:51.151Z,59.54
2022-09-03T08:12:39.420Z,57.99
2022-09-03T08:15:27.875Z,55.63
2022-09-03T08:18:15.966Z,54.65
2022-09-03T08:21:16.314Z,52.45
2022-09-03T08:24:04.864Z,52.42
2022-09-03T08:26:52.814Z,51.68
2022-09-03T08:29:40.696Z,52.43
2022-09-03T08:32:31.044Z,52.88
2022-09-03T08:35:22.133Z,51.88
2022-09-03T08:38:11.013Z,51.26
2022-09-03T08:41:17.535Z,51.13
2022-09-03T08:44:33.444Z,50.91
2022-09-03T08:47:46.644Z,49.53
2022-09-03T08:50:56.208Z,47.76
2022-09-03T08:53:56.252Z,44.14
2022-09-03T08:56:44.836Z,42.99
2022-09-03T08:59:33.951Z,42.78
2022-09-03T09:03:01.512Z,41.29
2022-09-03T09:06:17.193Z,39.72
2022-09-03T09:09:39.415Z,39.27
2022-09-03T09:12:44.201Z,38.11
2022-09-03T09:16:40.557Z,36.46
2022-09-03T09:20:16.794Z,35.72
2022-09-03T09:23:09.228Z,35.81
2022-09-03T09:26:01.847Z,35.00
2022-09-03T09:29:09.452Z,34.29
2022-09-03T09:31:58.234Z,31.36
2022-09-03T09:34:51.837Z,30.62
2022-09-03T09:37:51.209Z,30.43
2022-09-03T09:40:45.642Z,28.69
2022-09-03T09:43:34.068Z,27.36
2022-09-03T09:46:31.253Z,26.26
2022-09-03T09:49:36.045Z,25.54
2022-09-03T09:52:30.436Z,25.82
2022-09-03T09:55:20.607Z,27.54
2022-09-03T09:58:14.701Z,29.08
2022-09-03T10:01:13.565Z,29.00
2022-09-03T10:04:24.558Z,27.72
2022-09-03T10:07:33.283Z,27.17
2022-09-03T10:10:22.277Z,27.15
2022-09-03T10:13:31.163Z,26.48
2022-09-03T10:16:36.296Z,24.69
2022-09-03T10:19:40.854Z,24.68
2022-09-03T10:22:35.234Z,23.48
2022-09-03T10:25:29.893Z,24.27
2022-09-03T10:28:18.599Z,24.53
2022-09-03T10:31:37.032Z,25.00
2022-09-03T10:34:59.047Z,27.17
2022-09-03T10:38:00.873Z,28.22
2022-09-03T10:41:09.803Z,27.98
2022-09-03T10:44:19.762Z,28.42
2022-09-03T10:47:19.826Z,28.57
2022-09-03T10:50:59.929Z,27.68
2022-09-03T10:54:36.094Z,27.28
2022-09-03T10:58:11.476Z,27.72
2022-09-03T11:01:22.411Z,28.12
2022-09-03T11:05:01.216Z,27.56
2022-09-03T11:08:03.659Z,29.34
2022-09-03T11:11:00.895Z,31.00
2022-09-03T11:14:00.322Z,30.45
2022-09-03T11:17:03.176Z,29.21
2022-09-03T11:19:58.979Z,27.99
2022-09-03T11:22:49.778Z,27.94
2022-09-03T11:25:54.830Z,28.77
2022-09-03T11:28:57.249Z,28.54
2022-09-03T11:31:58.062Z,28.59
2022-09-03T11:34:52.736Z,27.95
2022-09-03T11:38:00.012Z,26.68
2022-09-03T11:41:27.373Z,26.60
2022-09-03T11:45:16.783Z,26.18
2022-09-03T11:48:48.309Z,26.70
2022-09-03T11:51:42.145Z,26.88
2022-09-03T11:54:33.656Z,27.64
2022-09-03T11:57:30.795Z,28.71
2022-09-03T12:00:21.765Z,28.82
2022-09-03T12:03:16.471Z,30.15
2022-09-03T12:06:49.663Z,30.72
2022-09-03T12:10:19.431Z,31.26
2022-09-03T12:13:40.622Z,32.79
2022-09-03T12:16:56.699Z,33.11
2022-09-03T12:19:56.377Z,33.56
2022-09-03T12:22:44.191Z,34.20
2022-09-03T12:25:32.535Z,35.14
2022-09-03T12:28:26.393Z,36.23
2022-09-03T12:31:24.755Z,36.47
2022-09-03T12:34:20.196Z,36.43
2022-09-03T12:40:32.922Z,38.05
2022-09-03T12:46:34.440Z,39.12
2022-09-03T12:49:30.427Z,39.75
2022-09-03T12:52:33.171Z,39.75
2022-09-03T12:55:54.112Z,39.64
2022-09-03T12:59:02.356Z,40.37
2022-09-03T13:01:58.762Z,39.34
2022-09-03T13:04:47.512Z,38.76
2022-09-03T13:07:39.057Z,38.70
2022-09-03T13:10:39.062Z,38.26
2022-09-03T13:13:36.781Z,38.69
2022-09-03T13:16:46.792Z,38.44
2022-09-03T13:19:51.034Z,38.88
2022-09-03T19:45:26.634Z,72.71
2022-09-03T19:49:18.224Z,72.94
2022-09-03T19:52:40.148Z,71.68
2022-09-03T19:55:55.028Z,71.65
2022-09-03T19:59:29.717Z,71.84
2022-09-03T20:02:36.326Z,72.03
2022-09-03T20:05:43.863Z,72.37
2022-09-03T20:08:52.835Z,72.55
2022-09-03T20:11:41.915Z,73.34
2022-09-03T20:14:33.219Z,73.42
2022-09-03T20:18:19.684Z,73.91
2022-09-03T20:21:23.740Z,74.27
2022-09-03T20:24:34.234Z,74.41
2022-09-03T20:27:58.751Z,75.04
2022-09-03T20:31:25.089Z,75.21
2022-09-03T20:34:35.330Z,75.77
2022-09-03T20:37:30.157Z,75.42
2022-09-03T20:40:40.158Z,75.88
2022-09-03T20:43:59.054Z,76.22
2022-09-03T20:47:05.800Z,76.14
2022-09-03T20:50:22.246Z,76.40
2022-09-03T20:53:23.726Z,76.39
2022-09-03T20:56:35.739Z,76.72
2022-09-03T20:59:36.104Z,76.89
2022-09-03T21:03:20.121Z,76.95
2022-09-03T21:06:39.120Z,77.26
2022-09-03T21:10:05.322Z,77.28
2022-09-03T21:13:47.731Z,77.62
2022-09-03T21:17:00.544Z,77.60
2022-09-03T21:20:16.547Z,77.70
2022-09-03T21:23:21.929Z,77.92
2022-09-03T21:26:27.648Z,78.19
2022-09-03T21:29:32.999Z,78.50
2022-09-03T21:32:29.434Z,79.00
2022-09-03T21:35:43.090Z,79.01
2022-09-03T21:38:38.591Z,79.21
2022-09-03T21:41:49.700Z,79.51
2022-09-03T21:45:07.814Z,79.67
2022-09-03T21:48:18.550Z,79.62
2022-09-03T21:51:22.103Z,79.65
2022-09-03T21:54:19.164Z,79.89
2022-09-03T21:57:40.764Z,80.02
2022-09-03T22:00:32.792Z,80.13
2022-09-03T22:03:21.824Z,80.11
2022-09-03T22:06:25.769Z,80.46
2022-09-03T22:09:33.722Z,80.40
2022-09-03T22:12:40.187Z,80.41
2022-09-03T22:15:29.965Z,80.39
2022-09-03T22:18:28.812Z,80.20
2022-09-03T22:21:37.218Z,80.25
2022-09-03T22:24:48.218Z,80.29
2022-09-03T22:27:50.044Z,80.75
2022-09-03T22:31:13.032Z,80.60
2022-09-03T22:34:46.399Z,80.74
2022-09-03T22:38:01.909Z,79.87
2022-09-03T22:41:16.267Z,79.48
2022-09-03T22:44:22.879Z,79.50
2022-09-03T22:48:02.844Z,78.28
2022-09-03T22:51:00.637Z,78.11
2022-09-03T22:54:05.283Z,78.04
2022-09-03T22:56:56.319Z,77.37
2022-09-03T23:00:09.722Z,77.52
2022-09-03T23:03:07.971Z,77.21
2022-09-03T23:06:13.436Z,77.11
2022-09-03T23:09:36.994Z,76.73
2022-09-03T23:12:46.435Z,76.55
2022-09-03T23:15:38.700Z,76.43
2022-09-03T23:18:32.553Z,76.21
2022-09-03T23:21:41.181Z,75.83
2022-09-03T23:24:50.273Z,76.03
2022-09-03T23:27:53.682Z,76.05
2022-09-03T23:30:41.905Z,75.75
2022-09-03T23:33:29.568Z,75.41
2022-09-03T23:36:50.997Z,75.69
2022-09-03T23:40:16.380Z,75.32
2022-09-03T23:43:14.380Z,75.55
2022-09-03T23:46:19.065Z,75.98
2022-09-03T23:49:27.400Z,75.58
2022-09-03T23:52:20.980Z,75.94
2022-09-03T23:55:41.608Z,75.53
2022-09-03T23:58:44.351Z,75.41
